sensor_id;sensor_type;location;lat;lon;timestamp;pressure;altitude;pressure_sealevel;temperature;humidity
33155;BME280;19511;42.682;23.332;2023-02-21T00:02:22;95450.38;;;2.90;100.00
33155;BME280;19511;42.682;23.332;2023-02-21T00:05:06;95553.38;;;3.34;100.00
33155;BME280;19511;42.682;23.332;2023-02-21T00:07:50;95556.69;;;3.27;100.00
33155;BME280;19511;42.682;23.332;2023-02-21T00:10:37;95556.19;;;3.38;100.00
33155;BME280;19511;42.682;23.332;2023-02-21T00:13:21;95454.53;;;2.84;100.00
33155;BME280;19511;42.682;23.332;2023-02-21T00:16:05;95458.22;;;2.92;100.00
33155;BME280;19511;42.682;23.332;2023-02-21T00:18:49;95527.78;;;3.26;100.00
33155;BME280;19511;42.682;23.332;2023-02-21T00:21:33;95559.63;;;3.35;100.00
33155;BME280;19511;42.682;23.332;2023-02-21T00:24:18;95531.84;;;3.17;100.00
33155;BME280;19511;42.682;23.332;2023-02-21T00:27:03;95533.63;;;3.09;100.00
33155;BME280;19511;42.682;23.332;2023-02-21T00:29:48;95500.19;;;2.84;100.00
33155;BME280;19511;42.682;23.332;2023-02-21T00:32:32;95551.50;;;3.06;100.00
33155;BME280;19511;42.682;23.332;2023-02-21T00:35:16;95515.38;;;2.97;100.00
33155;BME280;19511;42.682;23.332;2023-02-21T00:38:00;95524.88;;;3.03;100.00
33155;BME280;19511;42.682;23.332;2023-02-21T00:40:44;95428.72;;;2.66;100.00
33155;BME280;19511;42.682;23.332;2023-02-21T00:43:34;95534.31;;;3.22;100.00
33155;BME280;19511;42.682;23.332;2023-02-21T00:46:18;95526.63;;;3.27;100.00
33155;BME280;19511;42.682;23.332;2023-02-21T00:49:04;95531.03;;;3.48;100.00
33155;BME280;19511;42.682;23.332;2023-02-21T00:51:48;95454.00;;;2.94;100.00
33155;BME280;19511;42.682;23.332;2023-02-21T00:54:39;95513.72;;;3.44;100.00
33155;BME280;19511;42.682;23.332;2023-02-21T00:57:23;95518.22;;;3.52;100.00
33155;BME280;19511;42.682;23.332;2023-02-21T01:00:27;95513.97;;;3.71;100.00
33155;BME280;19511;42.682;23.332;2023-02-21T01:03:15;95513.53;;;3.69;100.00
33155;BME280;19511;42.682;23.332;2023-02-21T01:06:09;95497.66;;;3.58;100.00
33155;BME280;19511;42.682;23.332;2023-02-21T01:09:00;95489.47;;;3.58;100.00
33155;BME280;19511;42.682;23.332;2023-02-21T01:11:44;95492.09;;;3.71;100.00
33155;BME280;19511;42.682;23.332;2023-02-21T01:14:28;95478.25;;;3.64;100.00
33155;BME280;19511;42.682;23.332;2023-02-21T01:17:16;95480.59;;;3.81;100.00
33155;BME280;19511;42.682;23.332;2023-02-21T01:20:00;95475.09;;;3.81;100.00
33155;BME280;19511;42.682;23.332;2023-02-21T01:22:49;95454.06;;;3.66;100.00
33155;BME280;19511;42.682;23.332;2023-02-21T01:25:33;95482.97;;;3.83;100.00
33155;BME280;19511;42.682;23.332;2023-02-21T01:28:17;95475.25;;;3.88;100.00
33155;BME280;19511;42.682;23.332;2023-02-21T01:31:01;95458.81;;;3.88;100.00
33155;BME280;19511;42.682;23.332;2023-02-21T01:33:45;95464.44;;;3.96;100.00
33155;BME280;19511;42.682;23.332;2023-02-21T01:36:31;95473.19;;;4.01;100.00
33155;BME280;19511;42.682;23.332;2023-02-21T01:39:17;95468.13;;;3.84;100.00
33155;BME280;19511;42.682;23.332;2023-02-21T01:42:01;95451.34;;;3.85;100.00
33155;BME280;19511;42.682;23.332;2023-02-21T01:44:46;95475.38;;;3.76;100.00
33155;BME280;19511;42.682;23.332;2023-02-21T01:47:31;95470.47;;;3.66;100.00
33155;BME280;19511;42.682;23.332;2023-02-21T01:50:23;95453.84;;;3.74;100.00
33155;BME280;19511;42.682;23.332;2023-02-21T01:53:12;95460.13;;;3.75;100.00
33155;BME280;19511;42.682;23.332;2023-02-21T01:55:57;95442.75;;;3.67;100.00
33155;BME280;19511;42.682;23.332;2023-02-21T01:58:44;95448.81;;;3.76;100.00
33155;BME280;19511;42.682;23.332;2023-02-21T02:01:36;95444.63;;;3.63;100.00
33155;BME280;19511;42.682;23.332;2023-02-21T02:04:21;95426.84;;;3.53;100.00
33155;BME280;19511;42.682;23.332;2023-02-21T02:07:05;95420.50;;;3.49;100.00
33155;BME280;19511;42.682;23.332;2023-02-21T02:09:49;95418.47;;;3.46;100.00
33155;BME280;19511;42.682;23.332;2023-02-21T02:34:50;95422.97;;;3.54;100.00
33155;BME280;19511;42.682;23.332;2023-02-21T02:42:43;95417.41;;;3.70;100.00
33155;BME280;19511;42.682;23.332;2023-02-21T02:45:25;95399.78;;;3.48;100.00
33155;BME280;19511;42.682;23.332;2023-02-21T02:48:04;95419.78;;;3.52;100.00
33155;BME280;19511;42.682;23.332;2023-02-21T02:50:34;95306.31;;;2.87;100.00
33155;BME280;19511;42.682;23.332;2023-02-21T02:53:02;95322.34;;;2.89;100.00
33155;BME280;19511;42.682;23.332;2023-02-21T02:55:39;95413.38;;;3.45;100.00
33155;BME280;19511;42.682;23.332;2023-02-21T02:58:10;95413.56;;;3.55;100.00
33155;BME280;19511;42.682;23.332;2023-02-21T03:00:40;95302.94;;;2.94;100.00
33155;BME280;19511;42.682;23.332;2023-02-21T03:05:53;95414.25;;;3.68;100.00
33155;BME280;19511;42.682;23.332;2023-02-21T03:08:37;95409.13;;;3.67;100.00
33155;BME280;19511;42.682;23.332;2023-02-21T03:11:21;95417.00;;;3.68;100.00
33155;BME280;19511;42.682;23.332;2023-02-21T03:13:50;95413.03;;;3.66;100.00
33155;BME280;19511;42.682;23.332;2023-02-21T03:21:24;95412.06;;;3.58;100.00
33155;BME280;19511;42.682;23.332;2023-02-21T03:23:53;95395.72;;;3.62;100.00
33155;BME280;19511;42.682;23.332;2023-02-21T03:26:26;95404.31;;;3.60;100.00
33155;BME280;19511;42.682;23.332;2023-02-21T03:29:04;95390.63;;;3.40;100.00
33155;BME280;19511;42.682;23.332;2023-02-21T03:31:42;95391.97;;;3.50;100.00
33155;BME280;19511;42.682;23.332;2023-02-21T03:34:09;95399.59;;;3.41;100.00
33155;BME280;19511;42.682;23.332;2023-02-21T03:36:36;95283.69;;;2.71;100.00
33155;BME280;19511;42.682;23.332;2023-02-21T03:39:03;95391.69;;;3.55;100.00
33155;BME280;19511;42.682;23.332;2023-02-21T03:41:28;95384.03;;;3.25;100.00
33155;BME280;19511;42.682;23.332;2023-02-21T03:43:54;95380.31;;;3.34;100.00
33155;BME280;19511;42.682;23.332;2023-02-21T03:46:19;95388.91;;;3.52;100.00
33155;BME280;19511;42.682;23.332;2023-02-21T03:48:45;95400.66;;;3.36;100.00
33155;BME280;19511;42.682;23.332;2023-02-21T03:51:10;95364.78;;;3.38;100.00
33155;BME280;19511;42.682;23.332;2023-02-21T03:53:39;95406.13;;;3.36;100.00
33155;BME280;19511;42.682;23.332;2023-02-21T03:56:04;95415.16;;;3.37;100.00
33155;BME280;19511;42.682;23.332;2023-02-21T03:58:30;95410.78;;;3.16;100.00
33155;BME280;19511;42.682;23.332;2023-02-21T04:00:55;95415.19;;;3.21;100.00
33155;BME280;19511;42.682;23.332;2023-02-21T04:03:22;95416.19;;;3.13;100.00
33155;BME280;19511;42.682;23.332;2023-02-21T04:05:47;95421.03;;;3.03;100.00
33155;BME280;19511;42.682;23.332;2023-02-21T04:08:13;95395.03;;;2.93;100.00
33155;BME280;19511;42.682;23.332;2023-02-21T04:10:38;95299.44;;;2.10;100.00
33155;BME280;19511;42.682;23.332;2023-02-21T04:13:04;95405.16;;;2.93;100.00
33155;BME280;19511;42.682;23.332;2023-02-21T04:15:31;95358.75;;;2.45;100.00
33155;BME280;19511;42.682;23.332;2023-02-21T04:17:57;95432.94;;;2.79;100.00
33155;BME280;19511;42.682;23.332;2023-02-21T04:20:22;95420.59;;;2.85;100.00
33155;BME280;19511;42.682;23.332;2023-02-21T04:22:47;95429.25;;;2.87;100.00
33155;BME280;19511;42.682;23.332;2023-02-21T04:25:13;95434.72;;;2.87;100.00
33155;BME280;19511;42.682;23.332;2023-02-21T04:27:42;95434.16;;;2.98;100.00
33155;BME280;19511;42.682;23.332;2023-02-21T04:30:11;95431.97;;;2.87;100.00
33155;BME280;19511;42.682;23.332;2023-02-21T04:32:37;95440.88;;;2.84;100.00
33155;BME280;19511;42.682;23.332;2023-02-21T04:35:10;95450.91;;;2.80;100.00
33155;BME280;19511;42.682;23.332;2023-02-21T04:37:40;95426.78;;;2.82;100.00
33155;BME280;19511;42.682;23.332;2023-02-21T04:40:09;95448.72;;;2.86;100.00
33155;BME280;19511;42.682;23.332;2023-02-21T04:42:43;95443.16;;;2.98;100.00
33155;BME280;19511;42.682;23.332;2023-02-21T04:45:13;95457.00;;;3.05;100.00
33155;BME280;19511;42.682;23.332;2023-02-21T04:47:46;95445.72;;;2.91;100.00
33155;BME280;19511;42.682;23.332;2023-02-21T04:50:17;95428.38;;;2.83;100.00
33155;BME280;19511;42.682;23.332;2023-02-21T04:52:43;95407.47;;;2.75;100.00
33155;BME280;19511;42.682;23.332;2023-02-21T04:55:11;95427.28;;;2.88;100.00
33155;BME280;19511;42.682;23.332;2023-02-21T04:57:41;95408.34;;;2.79;100.00
33155;BME280;19511;42.682;23.332;2023-02-21T05:00:06;95427.47;;;2.95;100.00
33155;BME280;19511;42.682;23.332;2023-02-21T05:02:32;95420.22;;;3.03;100.00
33155;BME280;19511;42.682;23.332;2023-02-21T05:04:58;95419.84;;;3.20;100.00
33155;BME280;19511;42.682;23.332;2023-02-21T05:07:24;95396.75;;;3.18;100.00
33155;BME280;19511;42.682;23.332;2023-02-21T05:09:53;95414.41;;;3.40;100.00
33155;BME280;19511;42.682;23.332;2023-02-21T05:12:18;95288.97;;;2.64;100.00
33155;BME280;19511;42.682;23.332;2023-02-21T05:14:44;95403.47;;;3.40;100.00
33155;BME280;19511;42.682;23.332;2023-02-21T05:17:09;95394.34;;;3.32;100.00
33155;BME280;19511;42.682;23.332;2023-02-21T05:19:34;95404.09;;;3.49;100.00
33155;BME280;19511;42.682;23.332;2023-02-21T05:22:02;95394.09;;;3.57;100.00
33155;BME280;19511;42.682;23.332;2023-02-21T05:24:29;95371.97;;;3.46;100.00
33155;BME280;19511;42.682;23.332;2023-02-21T05:26:55;95381.03;;;3.31;100.00
33155;BME280;19511;42.682;23.332;2023-02-21T05:29:21;95401.03;;;3.35;100.00
33155;BME280;19511;42.682;23.332;2023-02-21T05:31:46;95397.31;;;2.91;100.00
33155;BME280;19511;42.682;23.332;2023-02-21T05:34:13;95295.13;;;2.25;100.00
33155;BME280;19511;42.682;23.332;2023-02-21T05:36:39;95398.91;;;2.76;100.00
33155;BME280;19511;42.682;23.332;2023-02-21T05:39:05;95390.75;;;2.60;100.00
33155;BME280;19511;42.682;23.332;2023-02-21T05:41:31;95394.63;;;2.59;100.00
33155;BME280;19511;42.682;23.332;2023-02-21T05:43:57;95298.88;;;1.88;100.00
33155;BME280;19511;42.682;23.332;2023-02-21T05:46:33;95328.00;;;1.84;100.00
33155;BME280;19511;42.682;23.332;2023-02-21T05:49:14;95423.25;;;2.66;100.00
33155;BME280;19511;42.682;23.332;2023-02-21T05:51:47;95429.31;;;2.75;100.00
33155;BME280;19511;42.682;23.332;2023-02-21T05:54:16;95320.53;;;2.13;100.00
33155;BME280;19511;42.682;23.332;2023-02-21T05:56:46;95416.00;;;2.89;100.00
33155;BME280;19511;42.682;23.332;2023-02-21T05:59:15;95327.50;;;2.42;100.00
33155;BME280;19511;42.682;23.332;2023-02-21T06:01:47;95335.50;;;2.51;100.00
33155;BME280;19511;42.682;23.332;2023-02-21T06:04:20;95430.94;;;3.27;100.00
33155;BME280;19511;42.682;23.332;2023-02-21T06:06:52;95450.84;;;3.44;100.00
33155;BME280;19511;42.682;23.332;2023-02-21T06:09:18;95381.97;;;3.19;100.00
33155;BME280;19511;42.682;23.332;2023-02-21T06:11:49;95441.06;;;3.79;100.00
33155;BME280;19511;42.682;23.332;2023-02-21T06:14:21;95339.94;;;3.27;100.00
33155;BME280;19511;42.682;23.332;2023-02-21T06:16:47;95458.31;;;4.02;100.00
33155;BME280;19511;42.682;23.332;2023-02-21T06:19:17;95412.16;;;4.01;100.00
33155;BME280;19511;42.682;23.332;2023-02-21T06:21:47;95437.78;;;4.32;100.00
33155;BME280;19511;42.682;23.332;2023-02-21T06:24:18;95444.31;;;4.47;100.00
33155;BME280;19511;42.682;23.332;2023-02-21T06:26:43;95447.25;;;4.57;100.00
33155;BME280;19511;42.682;23.332;2023-02-21T06:29:10;95360.84;;;4.17;100.00
33155;BME280;19511;42.682;23.332;2023-02-21T06:31:40;95441.53;;;4.89;100.00
33155;BME280;19511;42.682;23.332;2023-02-21T06:34:17;95443.25;;;4.98;100.00
33155;BME280;19511;42.682;23.332;2023-02-21T06:36:51;95445.78;;;5.10;100.00
33155;BME280;19511;42.682;23.332;2023-02-21T06:39:25;95429.88;;;5.19;100.00
33155;BME280;19511;42.682;23.332;2023-02-21T06:41:55;95441.19;;;5.41;100.00
33155;BME280;19511;42.682;23.332;2023-02-21T06:44:25;95443.34;;;5.59;100.00
33155;BME280;19511;42.682;23.332;2023-02-21T06:46:59;95445.66;;;5.83;100.00
33155;BME280;19511;42.682;23.332;2023-02-21T06:49:29;95416.59;;;5.79;100.00
33155;BME280;19511;42.682;23.332;2023-02-21T06:52:01;95431.09;;;6.06;100.00
33155;BME280;19511;42.682;23.332;2023-02-21T06:54:30;95440.63;;;6.19;100.00
33155;BME280;19511;42.682;23.332;2023-02-21T06:56:59;95440.06;;;6.37;100.00
33155;BME280;19511;42.682;23.332;2023-02-21T06:59:27;95420.44;;;6.35;100.00
33155;BME280;19511;42.682;23.332;2023-02-21T07:01:53;95416.16;;;6.41;100.00
33155;BME280;19511;42.682;23.332;2023-02-21T07:04:18;95442.78;;;6.71;100.00
33155;BME280;19511;42.682;23.332;2023-02-21T07:06:45;95434.53;;;6.71;100.00
33155;BME280;19511;42.682;23.332;2023-02-21T07:09:10;95434.72;;;6.93;100.00
33155;BME280;19511;42.682;23.332;2023-02-21T07:11:36;95437.94;;;6.98;100.00
33155;BME280;19511;42.682;23.332;2023-02-21T07:14:02;95337.53;;;6.29;100.00
33155;BME280;19511;42.682;23.332;2023-02-21T07:16:28;95427.72;;;6.99;100.00
33155;BME280;19511;42.682;23.332;2023-02-21T07:18:57;95434.50;;;7.16;100.00
33155;BME280;19511;42.682;23.332;2023-02-21T07:21:25;95437.78;;;7.32;100.00
33155;BME280;19511;42.682;23.332;2023-02-21T07:23:51;95343.84;;;6.75;100.00
33155;BME280;19511;42.682;23.332;2023-02-21T07:26:16;95392.88;;;7.17;100.00
33155;BME280;19511;42.682;23.332;2023-02-21T07:28:49;95418.66;;;7.50;100.00
33155;BME280;19511;42.682;23.332;2023-02-21T07:31:14;95406.06;;;7.49;100.00
33155;BME280;19511;42.682;23.332;2023-02-21T07:33:40;95340.94;;;7.05;100.00
33155;BME280;19511;42.682;23.332;2023-02-21T07:36:07;95419.16;;;7.67;100.00
33155;BME280;19511;42.682;23.332;2023-02-21T07:38:33;95424.69;;;7.78;100.00
33155;BME280;19511;42.682;23.332;2023-02-21T07:41:00;95313.50;;;7.19;100.00
33155;BME280;19511;42.682;23.332;2023-02-21T07:43:27;95313.53;;;7.27;100.00
33155;BME280;19511;42.682;23.332;2023-02-21T07:45:53;95402.75;;;7.92;100.00
33155;BME280;19511;42.682;23.332;2023-02-21T07:48:23;95387.78;;;7.93;100.00
33155;BME280;19511;42.682;23.332;2023-02-21T07:50:48;95411.00;;;7.96;100.00
33155;BME280;19511;42.682;23.332;2023-02-21T07:55:51;95316.84;;;7.61;100.00
33155;BME280;19511;42.682;23.332;2023-02-21T07:58:16;95386.25;;;8.03;100.00
33155;BME280;19511;42.682;23.332;2023-02-21T08:00:42;95394.16;;;8.12;100.00
33155;BME280;19511;42.682;23.332;2023-02-21T08:03:11;95398.16;;;8.22;100.00
33155;BME280;19511;42.682;23.332;2023-02-21T08:05:36;95397.34;;;8.25;100.00
33155;BME280;19511;42.682;23.332;2023-02-21T08:08:02;95387.94;;;8.29;100.00
33155;BME280;19511;42.682;23.332;2023-02-21T08:10:28;95389.47;;;8.23;100.00
33155;BME280;19511;42.682;23.332;2023-02-21T08:12:54;95390.66;;;8.26;100.00
33155;BME280;19511;42.682;23.332;2023-02-21T08:15:19;95383.59;;;8.28;100.00
33155;BME280;19511;42.682;23.332;2023-02-21T08:17:48;95359.94;;;8.13;100.00
33155;BME280;19511;42.682;23.332;2023-02-21T08:20:14;95384.75;;;8.16;100.00
33155;BME280;19511;42.682;23.332;2023-02-21T08:22:39;95389.50;;;8.27;100.00
33155;BME280;19511;42.682;23.332;2023-02-21T08:25:05;95383.59;;;8.39;100.00
33155;BME280;19511;42.682;23.332;2023-02-21T08:27:31;95376.91;;;8.33;100.00
33155;BME280;19511;42.682;23.332;2023-02-21T08:29:56;95277.56;;;7.75;100.00
33155;BME280;19511;42.682;23.332;2023-02-21T08:32:22;95378.16;;;8.54;100.00
33155;BME280;19511;42.682;23.332;2023-02-21T08:34:48;95282.34;;;7.93;100.00
33155;BME280;19511;42.682;23.332;2023-02-21T08:37:14;95366.75;;;8.55;100.00
33155;BME280;19511;42.682;23.332;2023-02-21T08:39:48;95367.16;;;8.68;100.00
33155;BME280;19511;42.682;23.332;2023-02-21T08:42:15;95369.91;;;8.72;100.00
33155;BME280;19511;42.682;23.332;2023-02-21T08:44:44;95265.88;;;8.14;100.00
33155;BME280;19511;42.682;23.332;2023-02-21T08:47:11;95358.09;;;8.89;100.00
33155;BME280;19511;42.682;23.332;2023-02-21T08:49:37;95309.25;;;8.82;100.00
33155;BME280;19511;42.682;23.332;2023-02-21T08:52:07;95373.84;;;9.25;100.00
33155;BME280;19511;42.682;23.332;2023-02-21T08:54:33;95269.06;;;8.67;98.91
33155;BME280;19511;42.682;23.332;2023-02-21T08:56:59;95290.72;;;8.94;98.19
33155;BME280;19511;42.682;23.332;2023-02-21T08:59:24;95364.72;;;9.60;98.01
33155;BME280;19511;42.682;23.332;2023-02-21T09:01:51;95278.47;;;9.06;97.62
33155;BME280;19511;42.682;23.332;2023-02-21T09:04:17;95361.97;;;9.53;99.18
33155;BME280;19511;42.682;23.332;2023-02-21T09:06:42;95347.72;;;9.66;97.16
33155;BME280;19511;42.682;23.332;2023-02-21T09:09:08;95280.78;;;9.36;96.16
33155;BME280;19511;42.682;23.332;2023-02-21T09:11:40;95354.03;;;9.73;95.71
33155;BME280;19511;42.682;23.332;2023-02-21T09:14:11;95324.03;;;9.72;95.87
33155;BME280;19511;42.682;23.332;2023-02-21T09:16:41;95349.22;;;9.95;95.05
33155;BME280;19511;42.682;23.332;2023-02-21T09:19:10;95324.72;;;9.94;94.17
33155;BME280;19511;42.682;23.332;2023-02-21T09:21:37;95346.28;;;10.28;92.52
33155;BME280;19511;42.682;23.332;2023-02-21T09:24:18;95330.78;;;10.49;91.51
33155;BME280;19511;42.682;23.332;2023-02-21T09:26:43;95341.78;;;10.59;87.21
33155;BME280;19511;42.682;23.332;2023-02-21T09:29:10;95334.66;;;10.62;87.35
33155;BME280;19511;42.682;23.332;2023-02-21T09:31:36;95331.31;;;10.82;87.53
33155;BME280;19511;42.682;23.332;2023-02-21T09:34:01;95328.75;;;11.09;86.76
33155;BME280;19511;42.682;23.332;2023-02-21T09:36:27;95315.16;;;11.22;82.45
33155;BME280;19511;42.682;23.332;2023-02-21T09:38:52;95242.28;;;10.94;81.29
33155;BME280;19511;42.682;23.332;2023-02-21T09:41:18;95316.00;;;11.57;78.50
33155;BME280;19511;42.682;23.332;2023-02-21T09:43:49;95316.28;;;11.66;78.24
33155;BME280;19511;42.682;23.332;2023-02-21T09:46:34;95301.44;;;11.84;74.92
33155;BME280;19511;42.682;23.332;2023-02-21T09:49:02;95241.94;;;11.61;72.77
33155;BME280;19511;42.682;23.332;2023-02-21T09:51:30;95227.63;;;11.66;70.83
33155;BME280;19511;42.682;23.332;2023-02-21T09:54:03;95304.31;;;12.38;66.67
33155;BME280;19511;42.682;23.332;2023-02-21T09:56:41;95283.75;;;12.36;63.37
33155;BME280;19511;42.682;23.332;2023-02-21T09:59:13;95285.41;;;12.57;60.37
33155;BME280;19511;42.682;23.332;2023-02-21T10:01:55;95302.78;;;12.85;58.44
33155;BME280;19511;42.682;23.332;2023-02-21T10:08:05;95281.47;;;13.05;60.24
33155;BME280;19511;42.682;23.332;2023-02-21T10:10:19;95279.28;;;13.17;61.30
33155;BME280;19511;42.682;23.332;2023-02-21T10:15:48;95268.66;;;13.12;59.60
33155;BME280;19511;42.682;23.332;2023-02-21T10:21:46;95257.47;;;13.39;57.24
33155;BME280;19511;42.682;23.332;2023-02-21T10:24:15;95242.94;;;13.51;55.87
33155;BME280;19511;42.682;23.332;2023-02-21T10:26:49;95238.72;;;13.63;55.15
33155;BME280;19511;42.682;23.332;2023-02-21T10:30:23;95246.09;;;13.90;52.96
33155;BME280;19511;42.682;23.332;2023-02-21T10:32:12;95227.31;;;14.14;49.88
33155;BME280;19511;42.682;23.332;2023-02-21T10:34:38;95233.72;;;14.48;47.00
33155;BME280;19511;42.682;23.332;2023-02-21T10:37:36;95225.22;;;14.72;47.03
33155;BME280;19511;42.682;23.332;2023-02-21T10:40:38;95213.50;;;15.10;41.08
33155;BME280;19511;42.682;23.332;2023-02-21T10:46:09;95134.66;;;15.26;36.96
33155;BME280;19511;42.682;23.332;2023-02-21T10:48:40;95149.78;;;15.54;36.13
33155;BME280;19511;42.682;23.332;2023-02-21T10:51:15;95193.47;;;16.12;35.27
33155;BME280;19511;42.682;23.332;2023-02-21T10:53:45;95193.06;;;16.27;35.18
33155;BME280;19511;42.682;23.332;2023-02-21T10:58:55;95182.53;;;16.44;34.59
33155;BME280;19511;42.682;23.332;2023-02-21T11:03:58;95186.69;;;16.52;34.79
33155;BME280;19511;42.682;23.332;2023-02-21T11:08:57;95178.59;;;16.80;34.73
33155;BME280;19511;42.682;23.332;2023-02-21T11:11:40;95177.03;;;16.66;34.04
33155;BME280;19511;42.682;23.332;2023-02-21T11:14:25;95151.38;;;16.58;34.11
33155;BME280;19511;42.682;23.332;2023-02-21T11:17:05;94997.59;;;15.57;34.74
33155;BME280;19511;42.682;23.332;2023-02-21T11:22:18;95130.69;;;16.69;33.50
33155;BME280;19511;42.682;23.332;2023-02-21T11:24:59;95131.16;;;16.89;33.63
33155;BME280;19511;42.682;23.332;2023-02-21T11:27:27;95128.38;;;16.89;33.38
33155;BME280;19511;42.682;23.332;2023-02-21T11:29:54;95129.66;;;17.10;33.02
33155;BME280;19511;42.682;23.332;2023-02-21T11:32:29;95128.75;;;17.13;33.46
33155;BME280;19511;42.682;23.332;2023-02-21T11:37:46;95115.00;;;17.19;33.23
33155;BME280;19511;42.682;23.332;2023-02-21T11:40:50;95125.25;;;17.22;33.44
33155;BME280;19511;42.682;23.332;2023-02-21T11:43:26;95116.59;;;17.29;33.45
33155;BME280;19511;42.682;23.332;2023-02-21T11:46:14;95112.88;;;17.33;33.34
33155;BME280;19511;42.682;23.332;2023-02-21T11:49:34;95097.94;;;17.26;33.51
33155;BME280;19511;42.682;23.332;2023-02-21T11:51:52;95102.28;;;17.27;33.67
33155;BME280;19511;42.682;23.332;2023-02-21T11:54:26;95071.03;;;17.20;33.83
33155;BME280;19511;42.682;23.332;2023-02-21T11:57:01;95089.53;;;17.49;33.78
33155;BME280;19511;42.682;23.332;2023-02-21T12:05:44;95075.56;;;17.49;34.00
33155;BME280;19511;42.682;23.332;2023-02-21T12:17:08;95056.13;;;17.76;33.62
33155;BME280;19511;42.682;23.332;2023-02-21T12:33:30;95011.84;;;17.84;33.83
33155;BME280;19511;42.682;23.332;2023-02-21T12:46:51;95021.25;;;18.09;33.78
33155;BME280;19511;42.682;23.332;2023-02-21T12:52:07;94989.69;;;17.99;33.78
33155;BME280;19511;42.682;23.332;2023-02-21T12:57:18;95001.38;;;18.16;33.68
33155;BME280;19511;42.682;23.332;2023-02-21T13:00:04;95006.97;;;18.25;34.04
33155;BME280;19511;42.682;23.332;2023-02-21T13:03:00;95015.06;;;18.33;33.81
33155;BME280;19511;42.682;23.332;2023-02-21T13:06:01;94864.22;;;17.29;33.85
33155;BME280;19511;42.682;23.332;2023-02-21T13:11:16;94986.91;;;18.08;33.81
33155;BME280;19511;42.682;23.332;2023-02-21T13:13:55;94991.59;;;18.21;33.64
33155;BME280;19511;42.682;23.332;2023-02-21T13:16:24;94993.28;;;18.27;33.54
33155;BME280;19511;42.682;23.332;2023-02-21T13:18:56;94981.78;;;18.16;33.57
33155;BME280;19511;42.682;23.332;2023-02-21T13:24:12;94980.72;;;18.32;33.09
33155;BME280;19511;42.682;23.332;2023-02-21T13:29:26;94968.38;;;18.30;33.51
33155;BME280;19511;42.682;23.332;2023-02-21T13:32:03;94990.78;;;18.57;33.43
33155;BME280;19511;42.682;23.332;2023-02-21T13:34:58;94986.00;;;18.49;33.03
33155;BME280;19511;42.682;23.332;2023-02-21T13:37:31;94978.03;;;18.47;32.96
33155;BME280;19511;42.682;23.332;2023-02-21T13:40:30;94962.19;;;18.35;33.06
33155;BME280;19511;42.682;23.332;2023-02-21T13:43:15;94961.09;;;18.41;32.80
33155;BME280;19511;42.682;23.332;2023-02-21T13:45:46;94973.06;;;18.42;32.75
33155;BME280;19511;42.682;23.332;2023-02-21T13:48:37;94967.00;;;18.43;32.68
33155;BME280;19511;42.682;23.332;2023-02-21T13:51:43;94946.00;;;18.39;32.81
33155;BME280;19511;42.682;23.332;2023-02-21T13:54:10;94959.06;;;18.42;32.85
33155;BME280;19511;42.682;23.332;2023-02-21T13:56:49;94941.03;;;18.34;32.69
33155;BME280;19511;42.682;23.332;2023-02-21T14:01:49;94949.72;;;18.36;32.69
33155;BME280;19511;42.682;23.332;2023-02-21T14:05:18;94943.81;;;18.43;33.09
33155;BME280;19511;42.682;23.332;2023-02-21T14:07:36;94951.63;;;18.39;32.95
33155;BME280;19511;42.682;23.332;2023-02-21T14:10:03;94878.16;;;17.88;32.52
33155;BME280;19511;42.682;23.332;2023-02-21T14:12:30;94948.66;;;18.33;32.71
33155;BME280;19511;42.682;23.332;2023-02-21T14:15:12;94942.59;;;18.44;33.19
33155;BME280;19511;42.682;23.332;2023-02-21T14:18:25;94942.44;;;18.48;33.12
33155;BME280;19511;42.682;23.332;2023-02-21T14:21:09;94935.44;;;18.34;32.76
33155;BME280;19511;42.682;23.332;2023-02-21T14:24:04;94923.59;;;18.11;32.62
33155;BME280;19511;42.682;23.332;2023-02-21T14:30:13;94953.16;;;18.31;32.25
33155;BME280;19511;42.682;23.332;2023-02-21T14:32:50;94941.34;;;18.26;32.29
33155;BME280;19511;42.682;23.332;2023-02-21T14:35:36;94864.63;;;17.68;31.36
33155;BME280;19511;42.682;23.332;2023-02-21T14:44:15;94941.50;;;18.14;31.96
33155;BME280;19511;42.682;23.332;2023-02-21T14:55:34;94929.81;;;17.97;31.79
33155;BME280;19511;42.682;23.332;2023-02-21T15:03:37;94927.91;;;17.84;31.80
33155;BME280;19511;42.682;23.332;2023-02-21T15:06:18;94914.41;;;17.83;31.58
33155;BME280;19511;42.682;23.332;2023-02-21T15:09:19;94928.53;;;17.79;31.72
33155;BME280;19511;42.682;23.332;2023-02-21T15:11:50;94926.63;;;17.67;32.31
33155;BME280;19511;42.682;23.332;2023-02-21T15:14:31;94917.91;;;17.55;32.45
33155;BME280;19511;42.682;23.332;2023-02-21T15:22:39;94935.50;;;17.65;32.15
33155;BME280;19511;42.682;23.332;2023-02-21T15:25:28;94856.56;;;17.11;32.37
33155;BME280;19511;42.682;23.332;2023-02-21T15:28:04;94926.63;;;17.57;32.54
33155;BME280;19511;42.682;23.332;2023-02-21T15:31:03;94948.31;;;17.53;32.39
33155;BME280;19511;42.682;23.332;2023-02-21T15:33:33;94941.78;;;17.47;32.76
33155;BME280;19511;42.682;23.332;2023-02-21T15:39:18;94952.53;;;17.49;32.69
33155;BME280;19511;42.682;23.332;2023-02-21T15:41:50;94937.84;;;17.26;32.56
33155;BME280;19511;42.682;23.332;2023-02-21T15:45:06;94944.03;;;17.21;32.87
33155;BME280;19511;42.682;23.332;2023-02-21T15:47:40;94953.78;;;17.16;32.97
33155;BME280;19511;42.682;23.332;2023-02-21T15:52:47;94966.72;;;16.91;33.35
33155;BME280;19511;42.682;23.332;2023-02-21T15:58:25;94962.91;;;16.85;33.81
33155;BME280;19511;42.682;23.332;2023-02-21T16:01:14;94967.47;;;16.70;33.87
33155;BME280;19511;42.682;23.332;2023-02-21T16:03:49;94950.78;;;16.57;33.83
33155;BME280;19511;42.682;23.332;2023-02-21T16:06:29;94934.63;;;16.29;34.58